sensor_id;sensor_type;location;lat;lon;timestamp;P1;durP1;ratioP1;P2;durP2;ratioP2
5022;SDS011;2530;47.990;7.866;2023-01-06T00:00:29;2.40;;;1.60;;
5022;SDS011;2530;47.990;7.866;2023-01-06T00:02:55;2.25;;;1.60;;
5022;SDS011;2530;47.990;7.866;2023-01-06T00:05:20;1.83;;;1.60;;
5022;SDS011;2530;47.990;7.866;2023-01-06T00:07:49;1.97;;;1.80;;
5022;SDS011;2530;47.990;7.866;2023-01-06T00:10:15;1.80;;;1.70;;
5022;SDS011;2530;47.990;7.866;2023-01-06T00:12:44;1.60;;;1.50;;
5022;SDS011;2530;47.990;7.866;2023-01-06T00:15:11;1.65;;;1.52;;
5022;SDS011;2530;47.990;7.866;2023-01-06T00:17:37;1.95;;;1.73;;
5022;SDS011;2530;47.990;7.866;2023-01-06T00:20:03;4.20;;;2.10;;
5022;SDS011;2530;47.990;7.866;2023-01-06T00:22:29;2.20;;;1.70;;
5022;SDS011;2530;47.990;7.866;2023-01-06T00:24:55;2.40;;;1.70;;
5022;SDS011;2530;47.990;7.866;2023-01-06T00:27:20;3.30;;;2.00;;
5022;SDS011;2530;47.990;7.866;2023-01-06T00:29:46;2.40;;;1.90;;
5022;SDS011;2530;47.990;7.866;2023-01-06T00:32:13;2.03;;;1.70;;
5022;SDS011;2530;47.990;7.866;2023-01-06T00:34:39;2.35;;;1.52;;
5022;SDS011;2530;47.990;7.866;2023-01-06T00:37:04;1.60;;;1.50;;
5022;SDS011;2530;47.990;7.866;2023-01-06T00:39:30;2.20;;;1.50;;
5022;SDS011;2530;47.990;7.866;2023-01-06T00:41:55;2.40;;;1.20;;
5022;SDS011;2530;47.990;7.866;2023-01-06T00:44:27;2.15;;;1.75;;
5022;SDS011;2530;47.990;7.866;2023-01-06T00:47:00;2.92;;;1.70;;
5022;SDS011;2530;47.990;7.866;2023-01-06T00:49:26;1.75;;;1.50;;
5022;SDS011;2530;47.990;7.866;2023-01-06T00:51:52;2.30;;;2.08;;
5022;SDS011;2530;47.990;7.866;2023-01-06T00:54:18;1.88;;;1.70;;
5022;SDS011;2530;47.990;7.866;2023-01-06T00:56:45;3.70;;;1.60;;
5022;SDS011;2530;47.990;7.866;2023-01-06T00:59:12;2.35;;;1.67;;
5022;SDS011;2530;47.990;7.866;2023-01-06T01:01:39;1.77;;;1.60;;
5022;SDS011;2530;47.990;7.866;2023-01-06T01:04:06;2.58;;;1.80;;
5022;SDS011;2530;47.990;7.866;2023-01-06T01:06:32;3.50;;;1.60;;
5022;SDS011;2530;47.990;7.866;2023-01-06T01:08:59;3.17;;;1.90;;
5022;SDS011;2530;47.990;7.866;2023-01-06T01:11:25;1.90;;;1.60;;
5022;SDS011;2530;47.990;7.866;2023-01-06T01:14:10;2.30;;;1.63;;
5022;SDS011;2530;47.990;7.866;2023-01-06T01:16:37;2.25;;;2.03;;
5022;SDS011;2530;47.990;7.866;2023-01-06T01:19:03;2.05;;;1.67;;
5022;SDS011;2530;47.990;7.866;2023-01-06T01:21:29;1.52;;;1.40;;
5022;SDS011;2530;47.990;7.866;2023-01-06T01:23:55;1.53;;;1.43;;
5022;SDS011;2530;47.990;7.866;2023-01-06T01:26:21;1.63;;;1.38;;
5022;SDS011;2530;47.990;7.866;2023-01-06T01:28:46;1.70;;;1.60;;
5022;SDS011;2530;47.990;7.866;2023-01-06T01:31:12;3.07;;;1.50;;
5022;SDS011;2530;47.990;7.866;2023-01-06T01:33:39;2.45;;;1.60;;
5022;SDS011;2530;47.990;7.866;2023-01-06T01:36:06;1.30;;;1.20;;
5022;SDS011;2530;47.990;7.866;2023-01-06T01:38:33;1.50;;;1.40;;
5022;SDS011;2530;47.990;7.866;2023-01-06T01:40:59;2.38;;;1.70;;
5022;SDS011;2530;47.990;7.866;2023-01-06T01:43:25;3.30;;;1.90;;
5022;SDS011;2530;47.990;7.866;2023-01-06T01:46:06;1.50;;;1.40;;
5022;SDS011;2530;47.990;7.866;2023-01-06T01:48:32;1.60;;;1.30;;
5022;SDS011;2530;47.990;7.866;2023-01-06T01:51:00;1.70;;;1.25;;
5022;SDS011;2530;47.990;7.866;2023-01-06T01:53:29;1.63;;;1.52;;
5022;SDS011;2530;47.990;7.866;2023-01-06T01:55:59;2.10;;;1.20;;
5022;SDS011;2530;47.990;7.866;2023-01-06T01:58:29;3.05;;;1.30;;
5022;SDS011;2530;47.990;7.866;2023-01-06T02:00:58;1.60;;;1.50;;
5022;SDS011;2530;47.990;7.866;2023-01-06T02:03:24;1.60;;;1.40;;
5022;SDS011;2530;47.990;7.866;2023-01-06T02:05:52;1.60;;;1.40;;
5022;SDS011;2530;47.990;7.866;2023-01-06T02:11:02;2.00;;;1.20;;
5022;SDS011;2530;47.990;7.866;2023-01-06T02:13:29;1.75;;;1.20;;
5022;SDS011;2530;47.990;7.866;2023-01-06T02:16:04;2.00;;;1.50;;
5022;SDS011;2530;47.990;7.866;2023-01-06T02:19:05;1.40;;;1.30;;
5022;SDS011;2530;47.990;7.866;2023-01-06T02:22:08;2.40;;;1.50;;
5022;SDS011;2530;47.990;7.866;2023-01-06T02:30:34;1.52;;;1.33;;
5022;SDS011;2530;47.990;7.866;2023-01-06T02:33:17;2.03;;;1.40;;
5022;SDS011;2530;47.990;7.866;2023-01-06T02:43:59;3.63;;;1.60;;
5022;SDS011;2530;47.990;7.866;2023-01-06T02:49:44;1.55;;;1.30;;
5022;SDS011;2530;47.990;7.866;2023-01-06T02:52:41;3.20;;;2.10;;
5022;SDS011;2530;47.990;7.866;2023-01-06T02:58:01;2.30;;;1.80;;
5022;SDS011;2530;47.990;7.866;2023-01-06T03:00:33;2.40;;;1.55;;
5022;SDS011;2530;47.990;7.866;2023-01-06T03:03:01;4.88;;;2.15;;
5022;SDS011;2530;47.990;7.866;2023-01-06T03:05:32;2.20;;;2.00;;
5022;SDS011;2530;47.990;7.866;2023-01-06T03:07:59;2.00;;;1.48;;
5022;SDS011;2530;47.990;7.866;2023-01-06T03:10:28;1.92;;;1.33;;
5022;SDS011;2530;47.990;7.866;2023-01-06T03:13:09;1.40;;;1.30;;
5022;SDS011;2530;47.990;7.866;2023-01-06T03:15:39;3.72;;;1.50;;
5022;SDS011;2530;47.990;7.866;2023-01-06T03:18:05;2.07;;;1.37;;
5022;SDS011;2530;47.990;7.866;2023-01-06T03:20:31;1.70;;;1.40;;
5022;SDS011;2530;47.990;7.866;2023-01-06T03:22:57;2.17;;;1.50;;
5022;SDS011;2530;47.990;7.866;2023-01-06T03:25:22;2.30;;;1.10;;
5022;SDS011;2530;47.990;7.866;2023-01-06T03:27:48;1.17;;;1.08;;
5022;SDS011;2530;47.990;7.866;2023-01-06T03:30:14;1.40;;;1.30;;
5022;SDS011;2530;47.990;7.866;2023-01-06T03:35:30;0.90;;;0.90;;
5022;SDS011;2530;47.990;7.866;2023-01-06T03:38:46;1.40;;;1.10;;
5022;SDS011;2530;47.990;7.866;2023-01-06T03:44:25;1.10;;;1.00;;
5022;SDS011;2530;47.990;7.866;2023-01-06T03:46:59;2.88;;;1.23;;
5022;SDS011;2530;47.990;7.866;2023-01-06T03:49:36;1.00;;;0.90;;
5022;SDS011;2530;47.990;7.866;2023-01-06T03:52:12;1.20;;;1.00;;
5022;SDS011;2530;47.990;7.866;2023-01-06T03:54:59;2.60;;;1.20;;
5022;SDS011;2530;47.990;7.866;2023-01-06T03:57:32;1.10;;;1.00;;
5022;SDS011;2530;47.990;7.866;2023-01-06T04:00:05;1.27;;;1.17;;
5022;SDS011;2530;47.990;7.866;2023-01-06T04:02:43;2.63;;;1.40;;
5022;SDS011;2530;47.990;7.866;2023-01-06T04:05:14;1.10;;;1.00;;
5022;SDS011;2530;47.990;7.866;2023-01-06T04:07:42;1.90;;;0.88;;
5022;SDS011;2530;47.990;7.866;2023-01-06T04:10:08;1.00;;;0.90;;
5022;SDS011;2530;47.990;7.866;2023-01-06T04:12:35;1.40;;;0.90;;
5022;SDS011;2530;47.990;7.866;2023-01-06T04:17:29;1.48;;;1.20;;
5022;SDS011;2530;47.990;7.866;2023-01-06T04:19:55;1.07;;;0.97;;
5022;SDS011;2530;47.990;7.866;2023-01-06T04:22:20;1.20;;;1.10;;
5022;SDS011;2530;47.990;7.866;2023-01-06T04:24:46;1.35;;;0.82;;
5022;SDS011;2530;47.990;7.866;2023-01-06T04:27:11;1.37;;;1.00;;
5022;SDS011;2530;47.990;7.866;2023-01-06T04:29:37;1.00;;;0.90;;
5022;SDS011;2530;47.990;7.866;2023-01-06T04:32:02;1.20;;;1.10;;
5022;SDS011;2530;47.990;7.866;2023-01-06T04:34:28;0.90;;;0.90;;
5022;SDS011;2530;47.990;7.866;2023-01-06T04:36:54;1.17;;;1.07;;
5022;SDS011;2530;47.990;7.866;2023-01-06T04:39:19;1.40;;;1.30;;
5022;SDS011;2530;47.990;7.866;2023-01-06T04:41:45;1.50;;;1.40;;
5022;SDS011;2530;47.990;7.866;2023-01-06T04:44:10;1.42;;;1.30;;
5022;SDS011;2530;47.990;7.866;2023-01-06T04:46:36;1.10;;;0.95;;
5022;SDS011;2530;47.990;7.866;2023-01-06T04:49:02;1.20;;;1.10;;
5022;SDS011;2530;47.990;7.866;2023-01-06T04:51:27;1.40;;;1.30;;
5022;SDS011;2530;47.990;7.866;2023-01-06T04:53:53;1.50;;;1.20;;
5022;SDS011;2530;47.990;7.866;2023-01-06T04:56:19;1.10;;;1.00;;
5022;SDS011;2530;47.990;7.866;2023-01-06T04:58:45;1.73;;;1.10;;
5022;SDS011;2530;47.990;7.866;2023-01-06T05:01:11;1.10;;;0.90;;
5022;SDS011;2530;47.990;7.866;2023-01-06T05:03:37;1.13;;;1.00;;
5022;SDS011;2530;47.990;7.866;2023-01-06T05:06:04;1.40;;;1.10;;
5022;SDS011;2530;47.990;7.866;2023-01-06T05:08:35;1.20;;;1.10;;
5022;SDS011;2530;47.990;7.866;2023-01-06T05:11:02;0.97;;;0.90;;
5022;SDS011;2530;47.990;7.866;2023-01-06T05:13:33;1.00;;;0.80;;
5022;SDS011;2530;47.990;7.866;2023-01-06T05:15:59;1.50;;;1.00;;
5022;SDS011;2530;47.990;7.866;2023-01-06T05:18:29;4.22;;;1.10;;
5022;SDS011;2530;47.990;7.866;2023-01-06T05:20:54;2.97;;;0.90;;
5022;SDS011;2530;47.990;7.866;2023-01-06T05:23:20;1.13;;;1.00;;
5022;SDS011;2530;47.990;7.866;2023-01-06T05:25:46;1.17;;;0.80;;
5022;SDS011;2530;47.990;7.866;2023-01-06T05:28:16;1.40;;;1.00;;
5022;SDS011;2530;47.990;7.866;2023-01-06T05:30:41;2.10;;;1.10;;
5022;SDS011;2530;47.990;7.866;2023-01-06T05:33:07;2.10;;;1.00;;
5022;SDS011;2530;47.990;7.866;2023-01-06T05:35:33;1.00;;;0.90;;
5022;SDS011;2530;47.990;7.866;2023-01-06T05:37:58;1.43;;;1.00;;
5022;SDS011;2530;47.990;7.866;2023-01-06T05:40:24;1.17;;;1.07;;
5022;SDS011;2530;47.990;7.866;2023-01-06T05:42:52;1.55;;;1.40;;
5022;SDS011;2530;47.990;7.866;2023-01-06T05:45:19;1.20;;;1.10;;
5022;SDS011;2530;47.990;7.866;2023-01-06T05:47:44;1.80;;;1.00;;
5022;SDS011;2530;47.990;7.866;2023-01-06T05:50:10;1.00;;;0.90;;
5022;SDS011;2530;47.990;7.866;2023-01-06T05:52:35;1.40;;;0.87;;
5022;SDS011;2530;47.990;7.866;2023-01-06T05:55:01;1.40;;;0.87;;
5022;SDS011;2530;47.990;7.866;2023-01-06T05:57:26;1.27;;;0.80;;
5022;SDS011;2530;47.990;7.866;2023-01-06T05:59:52;1.10;;;1.00;;
5022;SDS011;2530;47.990;7.866;2023-01-06T06:02:17;1.02;;;0.70;;
5022;SDS011;2530;47.990;7.866;2023-01-06T06:04:43;0.60;;;0.60;;
5022;SDS011;2530;47.990;7.866;2023-01-06T06:07:10;1.10;;;0.80;;
5022;SDS011;2530;47.990;7.866;2023-01-06T06:09:35;0.80;;;0.80;;
5022;SDS011;2530;47.990;7.866;2023-01-06T06:12:01;1.40;;;1.10;;
5022;SDS011;2530;47.990;7.866;2023-01-06T06:14:26;1.00;;;0.90;;
5022;SDS011;2530;47.990;7.866;2023-01-06T06:16:52;2.80;;;1.20;;
5022;SDS011;2530;47.990;7.866;2023-01-06T06:19:17;0.77;;;0.77;;
5022;SDS011;2530;47.990;7.866;2023-01-06T06:21:43;1.10;;;0.95;;
5022;SDS011;2530;47.990;7.866;2023-01-06T06:24:09;1.50;;;1.38;;
5022;SDS011;2530;47.990;7.866;2023-01-06T06:26:34;1.60;;;1.50;;
5022;SDS011;2530;47.990;7.866;2023-01-06T06:29:00;1.50;;;1.40;;
5022;SDS011;2530;47.990;7.866;2023-01-06T06:31:26;1.30;;;1.20;;
5022;SDS011;2530;47.990;7.866;2023-01-06T06:33:54;1.30;;;1.20;;
5022;SDS011;2530;47.990;7.866;2023-01-06T06:36:21;1.30;;;1.20;;
5022;SDS011;2530;47.990;7.866;2023-01-06T06:38:47;1.10;;;1.00;;
5022;SDS011;2530;47.990;7.866;2023-01-06T06:41:14;1.20;;;1.10;;
5022;SDS011;2530;47.990;7.866;2023-01-06T06:43:40;1.30;;;1.10;;
5022;SDS011;2530;47.990;7.866;2023-01-06T06:46:06;0.95;;;0.90;;
5022;SDS011;2530;47.990;7.866;2023-01-06T06:48:32;1.23;;;1.13;;
5022;SDS011;2530;47.990;7.866;2023-01-06T06:50:58;1.60;;;1.30;;
5022;SDS011;2530;47.990;7.866;2023-01-06T06:53:25;1.40;;;1.10;;
5022;SDS011;2530;47.990;7.866;2023-01-06T06:55:51;1.30;;;1.10;;
5022;SDS011;2530;47.990;7.866;2023-01-06T06:58:17;1.25;;;1.15;;
5022;SDS011;2530;47.990;7.866;2023-01-06T07:00:42;1.10;;;1.00;;
5022;SDS011;2530;47.990;7.866;2023-01-06T07:03:08;1.30;;;1.00;;
5022;SDS011;2530;47.990;7.866;2023-01-06T07:05:33;1.20;;;1.10;;
5022;SDS011;2530;47.990;7.866;2023-01-06T07:07:59;1.25;;;1.15;;
5022;SDS011;2530;47.990;7.866;2023-01-06T07:10:24;1.40;;;1.30;;
5022;SDS011;2530;47.990;7.866;2023-01-06T07:12:50;1.40;;;1.30;;
5022;SDS011;2530;47.990;7.866;2023-01-06T07:15:15;2.20;;;1.23;;
5022;SDS011;2530;47.990;7.866;2023-01-06T07:17:41;1.20;;;1.10;;
5022;SDS011;2530;47.990;7.866;2023-01-06T07:20:07;1.38;;;1.27;;
5022;SDS011;2530;47.990;7.866;2023-01-06T07:22:36;0.80;;;0.80;;
5022;SDS011;2530;47.990;7.866;2023-01-06T07:25:04;1.27;;;1.17;;
5022;SDS011;2530;47.990;7.866;2023-01-06T07:27:31;2.90;;;1.20;;
5022;SDS011;2530;47.990;7.866;2023-01-06T07:29:57;1.20;;;1.10;;
5022;SDS011;2530;47.990;7.866;2023-01-06T07:32:22;1.30;;;1.20;;
5022;SDS011;2530;47.990;7.866;2023-01-06T07:34:48;2.00;;;1.20;;
5022;SDS011;2530;47.990;7.866;2023-01-06T07:37:13;1.60;;;1.10;;
5022;SDS011;2530;47.990;7.866;2023-01-06T07:39:39;1.30;;;1.20;;
5022;SDS011;2530;47.990;7.866;2023-01-06T07:42:06;1.10;;;1.00;;
5022;SDS011;2530;47.990;7.866;2023-01-06T07:44:33;1.00;;;0.90;;
5022;SDS011;2530;47.990;7.866;2023-01-06T07:46:58;2.00;;;1.00;;
5022;SDS011;2530;47.990;7.866;2023-01-06T07:49:24;1.85;;;1.15;;
5022;SDS011;2530;47.990;7.866;2023-01-06T07:51:49;3.30;;;1.20;;
5022;SDS011;2530;47.990;7.866;2023-01-06T07:54:14;1.70;;;1.07;;
5022;SDS011;2530;47.990;7.866;2023-01-06T07:56:40;1.37;;;1.07;;
5022;SDS011;2530;47.990;7.866;2023-01-06T07:59:07;1.83;;;1.10;;
5022;SDS011;2530;47.990;7.866;2023-01-06T08:01:32;1.10;;;0.90;;
5022;SDS011;2530;47.990;7.866;2023-01-06T08:03:58;1.20;;;0.90;;
5022;SDS011;2530;47.990;7.866;2023-01-06T08:06:23;1.20;;;1.00;;
5022;SDS011;2530;47.990;7.866;2023-01-06T08:08:49;1.00;;;0.90;;
5022;SDS011;2530;47.990;7.866;2023-01-06T08:11:14;1.83;;;1.40;;
5022;SDS011;2530;47.990;7.866;2023-01-06T08:13:40;1.53;;;1.43;;
5022;SDS011;2530;47.990;7.866;2023-01-06T08:16:06;1.70;;;1.10;;
5022;SDS011;2530;47.990;7.866;2023-01-06T08:18:32;1.25;;;1.15;;
5022;SDS011;2530;47.990;7.866;2023-01-06T08:20:59;1.30;;;1.20;;
5022;SDS011;2530;47.990;7.866;2023-01-06T08:23:29;1.50;;;1.40;;
5022;SDS011;2530;47.990;7.866;2023-01-06T08:26:05;3.60;;;1.40;;
5022;SDS011;2530;47.990;7.866;2023-01-06T08:28:39;1.50;;;1.20;;
5022;SDS011;2530;47.990;7.866;2023-01-06T08:31:12;2.28;;;1.27;;
5022;SDS011;2530;47.990;7.866;2023-01-06T08:33:42;3.65;;;1.30;;
5022;SDS011;2530;47.990;7.866;2023-01-06T08:36:10;1.40;;;1.20;;
5022;SDS011;2530;47.990;7.866;2023-01-06T08:38:38;1.40;;;1.30;;
5022;SDS011;2530;47.990;7.866;2023-01-06T08:41:04;2.05;;;1.38;;
5022;SDS011;2530;47.990;7.866;2023-01-06T08:43:30;1.47;;;1.33;;
5022;SDS011;2530;47.990;7.866;2023-01-06T08:45:59;2.20;;;1.47;;
5022;SDS011;2530;47.990;7.866;2023-01-06T08:48:26;2.60;;;2.10;;
5022;SDS011;2530;47.990;7.866;2023-01-06T08:50:53;2.80;;;2.40;;
5022;SDS011;2530;47.990;7.866;2023-01-06T08:53:19;2.00;;;1.50;;
5022;SDS011;2530;47.990;7.866;2023-01-06T08:55:44;1.70;;;0.70;;
5022;SDS011;2530;47.990;7.866;2023-01-06T08:58:10;1.20;;;0.80;;
5022;SDS011;2530;47.990;7.866;2023-01-06T09:00:36;0.90;;;0.50;;
5022;SDS011;2530;47.990;7.866;2023-01-06T09:03:03;1.23;;;0.50;;
5022;SDS011;2530;47.990;7.866;2023-01-06T09:05:29;0.40;;;0.30;;
5022;SDS011;2530;47.990;7.866;2023-01-06T09:07:55;0.60;;;0.40;;
5022;SDS011;2530;47.990;7.866;2023-01-06T09:10:20;0.60;;;0.40;;
5022;SDS011;2530;47.990;7.866;2023-01-06T09:12:46;0.50;;;0.40;;
5022;SDS011;2530;47.990;7.866;2023-01-06T09:15:12;1.70;;;0.47;;
5022;SDS011;2530;47.990;7.866;2023-01-06T09:17:38;0.80;;;0.53;;
5022;SDS011;2530;47.990;7.866;2023-01-06T09:20:03;0.60;;;0.40;;
5022;SDS011;2530;47.990;7.866;2023-01-06T09:22:29;0.60;;;0.50;;
5022;SDS011;2530;47.990;7.866;2023-01-06T09:24:55;0.50;;;0.40;;
5022;SDS011;2530;47.990;7.866;2023-01-06T09:27:21;1.27;;;0.40;;
5022;SDS011;2530;47.990;7.866;2023-01-06T09:29:46;0.90;;;0.40;;
5022;SDS011;2530;47.990;7.866;2023-01-06T09:32:12;0.60;;;0.50;;
5022;SDS011;2530;47.990;7.866;2023-01-06T09:34:37;2.60;;;0.90;;
5022;SDS011;2530;47.990;7.866;2023-01-06T09:37:03;1.10;;;0.90;;
5022;SDS011;2530;47.990;7.866;2023-01-06T09:39:29;1.73;;;0.70;;
5022;SDS011;2530;47.990;7.866;2023-01-06T09:44:29;1.70;;;0.80;;
5022;SDS011;2530;47.990;7.866;2023-01-06T09:46:55;1.00;;;0.73;;
5022;SDS011;2530;47.990;7.866;2023-01-06T10:00:16;0.77;;;0.60;;
5022;SDS011;2530;47.990;7.866;2023-01-06T10:02:53;0.60;;;0.60;;
5022;SDS011;2530;47.990;7.866;2023-01-06T10:17:02;1.10;;;0.50;;
5022;SDS011;2530;47.990;7.866;2023-01-06T10:24:53;2.10;;;0.50;;
5022;SDS011;2530;47.990;7.866;2023-01-06T10:30:15;0.55;;;0.40;;
5022;SDS011;2530;47.990;7.866;2023-01-06T10:32:49;0.70;;;0.40;;
5022;SDS011;2530;47.990;7.866;2023-01-06T10:35:16;1.40;;;0.88;;
5022;SDS011;2530;47.990;7.866;2023-01-06T10:37:45;0.70;;;0.60;;
5022;SDS011;2530;47.990;7.866;2023-01-06T10:40:22;1.30;;;0.40;;
5022;SDS011;2530;47.990;7.866;2023-01-06T10:48:10;0.50;;;0.50;;
5022;SDS011;2530;47.990;7.866;2023-01-06T10:50:44;0.60;;;0.40;;
5022;SDS011;2530;47.990;7.866;2023-01-06T10:53:10;0.50;;;0.40;;
5022;SDS011;2530;47.990;7.866;2023-01-06T10:55:38;0.63;;;0.50;;
5022;SDS011;2530;47.990;7.866;2023-01-06T10:58:18;0.50;;;0.40;;
5022;SDS011;2530;47.990;7.866;2023-01-06T11:01:08;0.60;;;0.40;;
5022;SDS011;2530;47.990;7.866;2023-01-06T11:03:40;0.60;;;0.40;;
5022;SDS011;2530;47.990;7.866;2023-01-06T11:06:14;0.60;;;0.40;;
5022;SDS011;2530;47.990;7.866;2023-01-06T11:08:51;0.50;;;0.40;;
5022;SDS011;2530;47.990;7.866;2023-01-06T11:11:18;0.50;;;0.40;;
5022;SDS011;2530;47.990;7.866;2023-01-06T11:13:48;0.50;;;0.40;;
5022;SDS011;2530;47.990;7.866;2023-01-06T11:16:20;1.63;;;1.20;;
5022;SDS011;2530;47.990;7.866;2023-01-06T11:19:05;0.60;;;0.40;;
5022;SDS011;2530;47.990;7.866;2023-01-06T11:21:36;1.00;;;0.50;;
5022;SDS011;2530;47.990;7.866;2023-01-06T11:26:50;0.40;;;0.30;;
5022;SDS011;2530;47.990;7.866;2023-01-06T11:29:32;0.60;;;0.30;;
5022;SDS011;2530;47.990;7.866;2023-01-06T11:32:43;1.00;;;0.60;;
5022;SDS011;2530;47.990;7.866;2023-01-06T11:34:50;1.00;;;0.40;;
5022;SDS011;2530;47.990;7.866;2023-01-06T11:37:32;0.50;;;0.40;;
5022;SDS011;2530;47.990;7.866;2023-01-06T11:40:49;0.50;;;0.40;;
5022;SDS011;2530;47.990;7.866;2023-01-06T11:42:55;0.40;;;0.38;;
5022;SDS011;2530;47.990;7.866;2023-01-06T11:45:34;0.50;;;0.38;;
5022;SDS011;2530;47.990;7.866;2023-01-06T11:48:03;0.60;;;0.30;;
5022;SDS011;2530;47.990;7.866;2023-01-06T11:50:54;0.70;;;0.30;;
5022;SDS011;2530;47.990;7.866;2023-01-06T11:53:22;0.40;;;0.30;;
5022;SDS011;2530;47.990;7.866;2023-01-06T11:56:03;0.50;;;0.40;;
5022;SDS011;2530;47.990;7.866;2023-01-06T11:58:34;0.50;;;0.30;;
5022;SDS011;2530;47.990;7.866;2023-01-06T12:01:11;0.70;;;0.30;;
5022;SDS011;2530;47.990;7.866;2023-01-06T12:03:44;0.60;;;0.30;;
5022;SDS011;2530;47.990;7.866;2023-01-06T12:11:16;0.70;;;0.40;;
5022;SDS011;2530;47.990;7.866;2023-01-06T12:13:48;0.50;;;0.32;;
5022;SDS011;2530;47.990;7.866;2023-01-06T12:16:17;0.50;;;0.40;;
5022;SDS011;2530;47.990;7.866;2023-01-06T12:18:47;0.50;;;0.30;;
5022;SDS011;2530;47.990;7.866;2023-01-06T12:21:25;0.50;;;0.30;;
5022;SDS011;2530;47.990;7.866;2023-01-06T12:23:54;0.95;;;0.30;;
5022;SDS011;2530;47.990;7.866;2023-01-06T12:26:23;0.50;;;0.33;;
5022;SDS011;2530;47.990;7.866;2023-01-06T12:28:49;0.60;;;0.30;;
5022;SDS011;2530;47.990;7.866;2023-01-06T12:31:25;0.70;;;0.40;;
5022;SDS011;2530;47.990;7.866;2023-01-06T12:33:59;0.50;;;0.38;;
5022;SDS011;2530;47.990;7.866;2023-01-06T12:36:37;0.60;;;0.40;;
5022;SDS011;2530;47.990;7.866;2023-01-06T12:39:24;0.47;;;0.30;;
5022;SDS011;2530;47.990;7.866;2023-01-06T12:45:02;1.65;;;0.90;;
5022;SDS011;2530;47.990;7.866;2023-01-06T12:50:36;1.65;;;0.95;;
5022;SDS011;2530;47.990;7.866;2023-01-06T12:55:40;0.70;;;0.40;;
5022;SDS011;2530;47.990;7.866;2023-01-06T13:01:29;0.90;;;0.40;;
5022;SDS011;2530;47.990;7.866;2023-01-06T13:09:06;0.60;;;0.40;;
5022;SDS011;2530;47.990;7.866;2023-01-06T13:17:04;0.70;;;0.40;;
5022;SDS011;2530;47.990;7.866;2023-01-06T13:19:43;0.50;;;0.50;;
5022;SDS011;2530;47.990;7.866;2023-01-06T13:31:27;0.70;;;0.50;;
5022;SDS011;2530;47.990;7.866;2023-01-06T13:39:21;0.70;;;0.50;;
5022;SDS011;2530;47.990;7.866;2023-01-06T13:41:51;0.50;;;0.35;;
5022;SDS011;2530;47.990;7.866;2023-01-06T13:44:21;0.70;;;0.60;;
5022;SDS011;2530;47.990;7.866;2023-01-06T13:46:49;0.50;;;0.50;;
5022;SDS011;2530;47.990;7.866;2023-01-06T13:49:17;1.10;;;0.70;;
5022;SDS011;2530;47.990;7.866;2023-01-06T13:51:43;1.00;;;0.60;;
5022;SDS011;2530;47.990;7.866;2023-01-06T13:59:49;0.60;;;0.40;;
5022;SDS011;2530;47.990;7.866;2023-01-06T14:02:56;0.90;;;0.50;;
5022;SDS011;2530;47.990;7.866;2023-01-06T14:07:59;0.60;;;0.50;;
5022;SDS011;2530;47.990;7.866;2023-01-06T14:12:55;0.50;;;0.40;;
5022;SDS011;2530;47.990;7.866;2023-01-06T14:15:30;0.70;;;0.60;;
5022;SDS011;2530;47.990;7.866;2023-01-06T14:17:57;0.80;;;0.47;;
5022;SDS011;2530;47.990;7.866;2023-01-06T14:20:29;0.50;;;0.40;;
5022;SDS011;2530;47.990;7.866;2023-01-06T14:23:02;0.80;;;0.60;;
5022;SDS011;2530;47.990;7.866;2023-01-06T14:25:40;0.60;;;0.60;;
5022;SDS011;2530;47.990;7.866;2023-01-06T14:30:44;0.75;;;0.40;;
5022;SDS011;2530;47.990;7.866;2023-01-06T14:33:22;0.90;;;0.68;;
5022;SDS011;2530;47.990;7.866;2023-01-06T14:38:48;0.60;;;0.50;;
5022;SDS011;2530;47.990;7.866;2023-01-06T14:41:31;0.65;;;0.50;;
5022;SDS011;2530;47.990;7.866;2023-01-06T14:44:16;1.63;;;0.50;;
5022;SDS011;2530;47.990;7.866;2023-01-06T14:46:48;0.55;;;0.40;;
5022;SDS011;2530;47.990;7.866;2023-01-06T14:49:22;2.10;;;1.00;;
5022;SDS011;2530;47.990;7.866;2023-01-06T14:51:51;1.80;;;1.17;;
5022;SDS011;2530;47.990;7.866;2023-01-06T14:56:53;1.42;;;0.52;;
5022;SDS011;2530;47.990;7.866;2023-01-06T14:59:20;0.50;;;0.50;;
5022;SDS011;2530;47.990;7.866;2023-01-06T15:01:57;0.90;;;0.60;;
5022;SDS011;2530;47.990;7.866;2023-01-06T15:04:29;0.50;;;0.40;;
5022;SDS011;2530;47.990;7.866;2023-01-06T15:07:00;0.50;;;0.40;;
5022;SDS011;2530;47.990;7.866;2023-01-06T15:09:30;0.57;;;0.40;;
5022;SDS011;2530;47.990;7.866;2023-01-06T15:11:56;0.50;;;0.40;;
5022;SDS011;2530;47.990;7.866;2023-01-06T15:14:28;0.90;;;0.40;;
5022;SDS011;2530;47.990;7.866;2023-01-06T15:17:02;0.60;;;0.50;;
5022;SDS011;2530;47.990;7.866;2023-01-06T15:19:29;0.80;;;0.50;;
5022;SDS011;2530;47.990;7.866;2023-01-06T15:21:55;0.50;;;0.40;;
5022;SDS011;2530;47.990;7.866;2023-01-06T15:24:24;0.50;;;0.50;;
5022;SDS011;2530;47.990;7.866;2023-01-06T15:26:52;0.70;;;0.60;;
5022;SDS011;2530;47.990;7.866;2023-01-06T15:29:20;0.63;;;0.60;;
5022;SDS011;2530;47.990;7.866;2023-01-06T15:31:48;1.00;;;0.60;;
5022;SDS011;2530;47.990;7.866;2023-01-06T15:34:18;0.50;;;0.50;;
5022;SDS011;2530;47.990;7.866;2023-01-06T15:36:44;0.60;;;0.40;;
5022;SDS011;2530;47.990;7.866;2023-01-06T15:39:14;0.90;;;0.40;;
5022;SDS011;2530;47.990;7.866;2023-01-06T15:41:45;0.70;;;0.60;;
5022;SDS011;2530;47.990;7.866;2023-01-06T15:46:50;0.73;;;0.50;;
5022;SDS011;2530;47.990;7.866;2023-01-06T15:49:22;0.60;;;0.40;;
5022;SDS011;2530;47.990;7.866;2023-01-06T15:51:53;1.00;;;0.50;;
5022;SDS011;2530;47.990;7.866;2023-01-06T15:54:30;1.90;;;0.60;;
5022;SDS011;2530;47.990;7.866;2023-01-06T15:56:58;0.50;;;0.40;;
5022;SDS011;2530;47.990;7.866;2023-01-06T15:59:25;1.70;;;0.80;;
5022;SDS011;2530;47.990;7.866;2023-01-06T16:01:52;0.70;;;0.50;;
5022;SDS011;2530;47.990;7.866;2023-01-06T16:04:19;0.70;;;0.50;;
5022;SDS011;2530;47.990;7.866;2023-01-06T16:06:46;1.10;;;0.70;;
5022;SDS011;2530;47.990;7.866;2023-01-06T16:11:52;0.70;;;0.70;;
5022;SDS011;2530;47.990;7.866;2023-01-06T16:14:35;0.82;;;0.70;;
5022;SDS011;2530;47.990;7.866;2023-01-06T16:17:12;0.70;;;0.60;;
5022;SDS011;2530;47.990;7.866;2023-01-06T16:19:45;0.60;;;0.60;;
5022;SDS011;2530;47.990;7.866;2023-01-06T16:22:30;0.80;;;0.80;;
5022;SDS011;2530;47.990;7.866;2023-01-06T16:25:26;0.60;;;0.50;;
5022;SDS011;2530;47.990;7.866;2023-01-06T16:27:54;1.60;;;0.60;;
5022;SDS011;2530;47.990;7.866;2023-01-06T16:30:23;0.70;;;0.50;;
5022;SDS011;2530;47.990;7.866;2023-01-06T16:32:51;0.70;;;0.60;;
5022;SDS011;2530;47.990;7.866;2023-01-06T16:35:39;0.70;;;0.57;;
5022;SDS011;2530;47.990;7.866;2023-01-06T16:38:03;1.00;;;0.60;;
5022;SDS011;2530;47.990;7.866;2023-01-06T16:40:30;1.00;;;0.47;;
5022;SDS011;2530;47.990;7.866;2023-01-06T16:42:57;1.40;;;0.50;;
5022;SDS011;2530;47.990;7.866;2023-01-06T16:47:56;1.10;;;0.90;;
5022;SDS011;2530;47.990;7.866;2023-01-06T16:50:23;0.63;;;0.60;;
5022;SDS011;2530;47.990;7.866;2023-01-06T16:53:01;0.70;;;0.60;;
5022;SDS011;2530;47.990;7.866;2023-01-06T16:55:33;0.80;;;0.50;;
5022;SDS011;2530;47.990;7.866;2023-01-06T16:57:58;0.70;;;0.60;;
5022;SDS011;2530;47.990;7.866;2023-01-06T17:00:25;0.60;;;0.60;;
5022;SDS011;2530;47.990;7.866;2023-01-06T17:02:51;1.50;;;0.75;;
5022;SDS011;2530;47.990;7.866;2023-01-06T17:05:25;1.50;;;0.73;;
5022;SDS011;2530;47.990;7.866;2023-01-06T17:07:57;2.30;;;0.80;;
5022;SDS011;2530;47.990;7.866;2023-01-06T17:10:24;1.30;;;0.80;;
5022;SDS011;2530;47.990;7.866;2023-01-06T17:12:54;1.52;;;1.00;;
5022;SDS011;2530;47.990;7.866;2023-01-06T17:15:43;0.90;;;0.70;;
5022;SDS011;2530;47.990;7.866;2023-01-06T17:18:18;1.00;;;0.70;;
5022;SDS011;2530;47.990;7.866;2023-01-06T17:20:47;0.80;;;0.80;;
5022;SDS011;2530;47.990;7.866;2023-01-06T17:23:12;1.00;;;0.70;;
5022;SDS011;2530;47.990;7.866;2023-01-06T17:25:38;1.50;;;1.10;;
5022;SDS011;2530;47.990;7.866;2023-01-06T17:28:11;1.48;;;1.00;;
5022;SDS011;2530;47.990;7.866;2023-01-06T17:30:41;1.08;;;0.90;;
5022;SDS011;2530;47.990;7.866;2023-01-06T17:33:07;1.50;;;1.10;;
5022;SDS011;2530;47.990;7.866;2023-01-06T17:35:36;1.10;;;1.00;;
5022;SDS011;2530;47.990;7.866;2023-01-06T17:38:07;1.20;;;1.10;;
5022;SDS011;2530;47.990;7.866;2023-01-06T17:40:44;1.08;;;0.90;;
5022;SDS011;2530;47.990;7.866;2023-01-06T17:43:20;1.30;;;1.20;;
5022;SDS011;2530;47.990;7.866;2023-01-06T17:45:49;1.00;;;0.80;;
5022;SDS011;2530;47.990;7.866;2023-01-06T17:48:14;1.70;;;0.90;;
5022;SDS011;2530;47.990;7.866;2023-01-06T17:50:47;1.38;;;0.90;;